sensor_id;sensor_type;location;lat;lon;timestamp;P1;durP1;ratioP1;P2;durP2;ratioP2
38455;SDS011;24237;50.106;20.014;2023-05-07T00:01:52;24.15;;;13.52;;
38455;SDS011;24237;50.106;20.014;2023-05-07T00:04:18;21.90;;;12.35;;
38455;SDS011;24237;50.106;20.014;2023-05-07T00:06:43;30.63;;;13.27;;
38455;SDS011;24237;50.106;20.014;2023-05-07T00:09:09;26.80;;;13.70;;
38455;SDS011;24237;50.106;20.014;2023-05-07T00:11:35;23.95;;;12.25;;
38455;SDS011;24237;50.106;20.014;2023-05-07T00:14:01;25.35;;;12.38;;
38455;SDS011;24237;50.106;20.014;2023-05-07T00:16:27;21.42;;;11.80;;
38455;SDS011;24237;50.106;20.014;2023-05-07T00:18:52;23.33;;;12.38;;
38455;SDS011;24237;50.106;20.014;2023-05-07T00:21:18;20.02;;;11.65;;
38455;SDS011;24237;50.106;20.014;2023-05-07T00:23:44;22.17;;;11.82;;
38455;SDS011;24237;50.106;20.014;2023-05-07T00:26:09;23.02;;;12.55;;
38455;SDS011;24237;50.106;20.014;2023-05-07T00:28:35;23.70;;;12.73;;
38455;SDS011;24237;50.106;20.014;2023-05-07T00:31:00;24.10;;;13.98;;
38455;SDS011;24237;50.106;20.014;2023-05-07T00:33:26;26.23;;;14.23;;
38455;SDS011;24237;50.106;20.014;2023-05-07T00:35:52;25.95;;;14.77;;
38455;SDS011;24237;50.106;20.014;2023-05-07T00:38:19;30.45;;;15.70;;
38455;SDS011;24237;50.106;20.014;2023-05-07T00:40:44;27.05;;;14.20;;
38455;SDS011;24237;50.106;20.014;2023-05-07T00:43:10;34.88;;;15.25;;
38455;SDS011;24237;50.106;20.014;2023-05-07T00:45:37;32.17;;;15.40;;
38455;SDS011;24237;50.106;20.014;2023-05-07T00:48:03;34.00;;;15.95;;
38455;SDS011;24237;50.106;20.014;2023-05-07T00:50:29;32.38;;;15.32;;
38455;SDS011;24237;50.106;20.014;2023-05-07T00:52:55;32.53;;;15.90;;
38455;SDS011;24237;50.106;20.014;2023-05-07T00:55:22;27.95;;;14.48;;
38455;SDS011;24237;50.106;20.014;2023-05-07T00:57:48;27.00;;;15.75;;
38455;SDS011;24237;50.106;20.014;2023-05-07T01:00:15;37.72;;;16.80;;
38455;SDS011;24237;50.106;20.014;2023-05-07T01:02:42;31.45;;;17.30;;
38455;SDS011;24237;50.106;20.014;2023-05-07T01:05:08;31.15;;;16.45;;
38455;SDS011;24237;50.106;20.014;2023-05-07T01:07:41;33.53;;;16.33;;
38455;SDS011;24237;50.106;20.014;2023-05-07T01:10:08;34.87;;;16.30;;
38455;SDS011;24237;50.106;20.014;2023-05-07T01:12:35;27.83;;;15.45;;
38455;SDS011;24237;50.106;20.014;2023-05-07T01:15:03;36.75;;;17.05;;
38455;SDS011;24237;50.106;20.014;2023-05-07T01:17:29;37.92;;;18.20;;
38455;SDS011;24237;50.106;20.014;2023-05-07T01:20:03;30.30;;;17.13;;
38455;SDS011;24237;50.106;20.014;2023-05-07T01:22:31;31.65;;;17.20;;
38455;SDS011;24237;50.106;20.014;2023-05-07T01:25:02;35.13;;;17.45;;
38455;SDS011;24237;50.106;20.014;2023-05-07T01:27:32;39.72;;;19.15;;
38455;SDS011;24237;50.106;20.014;2023-05-07T01:30:02;30.10;;;17.95;;
38455;SDS011;24237;50.106;20.014;2023-05-07T01:35:18;38.95;;;19.90;;
38455;SDS011;24237;50.106;20.014;2023-05-07T01:37:47;33.50;;;18.67;;
38455;SDS011;24237;50.106;20.014;2023-05-07T01:40:13;34.35;;;19.42;;
38455;SDS011;24237;50.106;20.014;2023-05-07T01:42:39;32.95;;;19.40;;
38455;SDS011;24237;50.106;20.014;2023-05-07T01:45:06;35.30;;;18.80;;
38455;SDS011;24237;50.106;20.014;2023-05-07T01:47:32;31.55;;;17.20;;
38455;SDS011;24237;50.106;20.014;2023-05-07T01:49:58;32.97;;;16.48;;
38455;SDS011;24237;50.106;20.014;2023-05-07T01:52:24;26.67;;;14.65;;
38455;SDS011;24237;50.106;20.014;2023-05-07T01:54:50;27.85;;;15.15;;
38455;SDS011;24237;50.106;20.014;2023-05-07T01:57:16;25.90;;;15.32;;
38455;SDS011;24237;50.106;20.014;2023-05-07T01:59:41;23.30;;;13.13;;
38455;SDS011;24237;50.106;20.014;2023-05-07T02:02:07;25.77;;;13.43;;
38455;SDS011;24237;50.106;20.014;2023-05-07T02:04:32;25.90;;;13.60;;
38455;SDS011;24237;50.106;20.014;2023-05-07T02:06:58;29.33;;;14.70;;
38455;SDS011;24237;50.106;20.014;2023-05-07T02:09:23;26.95;;;13.27;;
38455;SDS011;24237;50.106;20.014;2023-05-07T02:11:49;24.23;;;13.90;;
38455;SDS011;24237;50.106;20.014;2023-05-07T02:14:14;21.70;;;12.23;;
38455;SDS011;24237;50.106;20.014;2023-05-07T02:16:40;21.40;;;11.90;;
38455;SDS011;24237;50.106;20.014;2023-05-07T02:19:06;26.88;;;12.60;;
38455;SDS011;24237;50.106;20.014;2023-05-07T02:21:32;23.40;;;12.95;;
38455;SDS011;24237;50.106;20.014;2023-05-07T02:23:57;25.70;;;12.40;;
38455;SDS011;24237;50.106;20.014;2023-05-07T02:26:23;20.02;;;12.13;;
38455;SDS011;24237;50.106;20.014;2023-05-07T02:28:48;22.02;;;12.13;;
38455;SDS011;24237;50.106;20.014;2023-05-07T02:31:14;19.83;;;11.07;;
38455;SDS011;24237;50.106;20.014;2023-05-07T02:33:39;25.90;;;12.23;;
38455;SDS011;24237;50.106;20.014;2023-05-07T02:36:08;18.75;;;11.02;;
38455;SDS011;24237;50.106;20.014;2023-05-07T02:38:35;16.58;;;10.77;;
38455;SDS011;24237;50.106;20.014;2023-05-07T02:41:01;19.45;;;9.95;;
38455;SDS011;24237;50.106;20.014;2023-05-07T02:43:26;13.60;;;8.18;;
38455;SDS011;24237;50.106;20.014;2023-05-07T02:46:05;12.80;;;8.15;;
38455;SDS011;24237;50.106;20.014;2023-05-07T02:48:32;13.50;;;7.95;;
38455;SDS011;24237;50.106;20.014;2023-05-07T02:50:59;13.90;;;7.00;;
38455;SDS011;24237;50.106;20.014;2023-05-07T02:53:25;11.88;;;7.22;;
38455;SDS011;24237;50.106;20.014;2023-05-07T02:55:52;10.75;;;6.50;;
38455;SDS011;24237;50.106;20.014;2023-05-07T02:58:18;10.07;;;6.28;;
38455;SDS011;24237;50.106;20.014;2023-05-07T03:00:44;7.15;;;5.25;;
38455;SDS011;24237;50.106;20.014;2023-05-07T03:03:09;8.85;;;5.28;;
38455;SDS011;24237;50.106;20.014;2023-05-07T03:05:35;6.88;;;5.10;;
38455;SDS011;24237;50.106;20.014;2023-05-07T03:08:01;7.45;;;4.72;;
38455;SDS011;24237;50.106;20.014;2023-05-07T03:10:27;6.93;;;3.22;;
38455;SDS011;24237;50.106;20.014;2023-05-07T03:12:53;11.30;;;3.50;;
38455;SDS011;24237;50.106;20.014;2023-05-07T03:15:19;5.28;;;3.08;;
38455;SDS011;24237;50.106;20.014;2023-05-07T03:17:44;3.72;;;2.53;;
38455;SDS011;24237;50.106;20.014;2023-05-07T03:20:10;2.70;;;2.15;;
38455;SDS011;24237;50.106;20.014;2023-05-07T03:22:36;6.20;;;3.00;;
38455;SDS011;24237;50.106;20.014;2023-05-07T03:25:02;4.93;;;2.67;;
38455;SDS011;24237;50.106;20.014;2023-05-07T03:27:27;5.30;;;3.25;;
38455;SDS011;24237;50.106;20.014;2023-05-07T03:29:53;3.83;;;2.72;;
38455;SDS011;24237;50.106;20.014;2023-05-07T03:32:18;4.90;;;2.33;;
38455;SDS011;24237;50.106;20.014;2023-05-07T03:34:44;4.10;;;2.80;;
38455;SDS011;24237;50.106;20.014;2023-05-07T03:37:09;4.72;;;2.67;;
38455;SDS011;24237;50.106;20.014;2023-05-07T03:39:35;6.30;;;2.70;;
38455;SDS011;24237;50.106;20.014;2023-05-07T03:42:00;7.10;;;2.72;;
38455;SDS011;24237;50.106;20.014;2023-05-07T03:44:26;5.47;;;2.65;;
38455;SDS011;24237;50.106;20.014;2023-05-07T03:46:51;7.82;;;2.83;;
38455;SDS011;24237;50.106;20.014;2023-05-07T03:49:17;5.28;;;2.53;;
38455;SDS011;24237;50.106;20.014;2023-05-07T03:51:43;5.43;;;2.85;;
38455;SDS011;24237;50.106;20.014;2023-05-07T03:54:08;5.85;;;3.20;;
38455;SDS011;24237;50.106;20.014;2023-05-07T03:56:34;6.32;;;3.00;;
38455;SDS011;24237;50.106;20.014;2023-05-07T03:59:00;4.85;;;3.05;;
38455;SDS011;24237;50.106;20.014;2023-05-07T04:01:26;8.48;;;3.25;;
38455;SDS011;24237;50.106;20.014;2023-05-07T04:03:52;5.03;;;3.05;;
38455;SDS011;24237;50.106;20.014;2023-05-07T04:06:17;5.43;;;3.30;;
38455;SDS011;24237;50.106;20.014;2023-05-07T04:08:44;5.88;;;2.67;;
38455;SDS011;24237;50.106;20.014;2023-05-07T04:11:09;4.13;;;2.58;;
38455;SDS011;24237;50.106;20.014;2023-05-07T04:13:35;8.88;;;2.90;;
38455;SDS011;24237;50.106;20.014;2023-05-07T04:16:01;4.88;;;2.83;;
38455;SDS011;24237;50.106;20.014;2023-05-07T04:18:28;5.50;;;3.08;;
38455;SDS011;24237;50.106;20.014;2023-05-07T04:20:53;6.93;;;3.03;;
38455;SDS011;24237;50.106;20.014;2023-05-07T04:23:20;5.18;;;2.92;;
38455;SDS011;24237;50.106;20.014;2023-05-07T04:25:46;5.00;;;3.17;;
38455;SDS011;24237;50.106;20.014;2023-05-07T04:28:11;6.80;;;3.90;;
38455;SDS011;24237;50.106;20.014;2023-05-07T04:30:37;8.40;;;2.70;;
38455;SDS011;24237;50.106;20.014;2023-05-07T04:33:03;4.63;;;2.70;;
38455;SDS011;24237;50.106;20.014;2023-05-07T04:35:29;5.13;;;2.53;;
38455;SDS011;24237;50.106;20.014;2023-05-07T04:37:55;3.47;;;2.72;;
38455;SDS011;24237;50.106;20.014;2023-05-07T04:40:20;3.85;;;2.13;;
38455;SDS011;24237;50.106;20.014;2023-05-07T04:42:46;2.85;;;2.00;;
38455;SDS011;24237;50.106;20.014;2023-05-07T04:45:11;6.68;;;2.60;;
38455;SDS011;24237;50.106;20.014;2023-05-07T04:47:38;4.35;;;2.42;;
38455;SDS011;24237;50.106;20.014;2023-05-07T04:50:04;8.38;;;2.13;;
38455;SDS011;24237;50.106;20.014;2023-05-07T04:52:31;6.45;;;2.50;;
38455;SDS011;24237;50.106;20.014;2023-05-07T04:54:58;4.53;;;2.05;;
38455;SDS011;24237;50.106;20.014;2023-05-07T04:57:24;3.22;;;2.05;;
38455;SDS011;24237;50.106;20.014;2023-05-07T04:59:51;3.38;;;2.58;;
38455;SDS011;24237;50.106;20.014;2023-05-07T05:02:17;4.05;;;2.50;;
38455;SDS011;24237;50.106;20.014;2023-05-07T05:04:42;4.88;;;2.47;;
38455;SDS011;24237;50.106;20.014;2023-05-07T05:07:08;6.40;;;2.60;;
38455;SDS011;24237;50.106;20.014;2023-05-07T05:09:33;5.00;;;2.55;;
38455;SDS011;24237;50.106;20.014;2023-05-07T05:11:59;5.57;;;2.72;;
38455;SDS011;24237;50.106;20.014;2023-05-07T05:14:25;7.28;;;2.65;;
38455;SDS011;24237;50.106;20.014;2023-05-07T05:16:50;5.95;;;2.80;;
38455;SDS011;24237;50.106;20.014;2023-05-07T05:19:16;4.03;;;2.67;;
38455;SDS011;24237;50.106;20.014;2023-05-07T05:21:41;3.13;;;2.17;;
38455;SDS011;24237;50.106;20.014;2023-05-07T05:24:07;2.78;;;1.90;;
38455;SDS011;24237;50.106;20.014;2023-05-07T05:26:33;6.25;;;2.47;;
38455;SDS011;24237;50.106;20.014;2023-05-07T05:28:59;3.60;;;2.05;;
38455;SDS011;24237;50.106;20.014;2023-05-07T05:31:25;3.80;;;2.60;;
38455;SDS011;24237;50.106;20.014;2023-05-07T05:33:51;3.65;;;2.35;;
38455;SDS011;24237;50.106;20.014;2023-05-07T05:36:16;5.00;;;2.42;;
38455;SDS011;24237;50.106;20.014;2023-05-07T05:38:42;3.97;;;2.03;;
38455;SDS011;24237;50.106;20.014;2023-05-07T05:41:08;5.22;;;3.22;;
38455;SDS011;24237;50.106;20.014;2023-05-07T05:43:34;5.82;;;3.25;;
38455;SDS011;24237;50.106;20.014;2023-05-07T05:46:00;4.25;;;2.25;;
38455;SDS011;24237;50.106;20.014;2023-05-07T05:48:25;4.90;;;2.50;;
38455;SDS011;24237;50.106;20.014;2023-05-07T05:50:51;4.95;;;2.33;;
38455;SDS011;24237;50.106;20.014;2023-05-07T05:53:17;3.60;;;2.10;;
38455;SDS011;24237;50.106;20.014;2023-05-07T05:55:43;5.63;;;2.42;;
38455;SDS011;24237;50.106;20.014;2023-05-07T05:58:09;3.47;;;2.35;;
38455;SDS011;24237;50.106;20.014;2023-05-07T06:00:34;5.05;;;2.78;;
38455;SDS011;24237;50.106;20.014;2023-05-07T06:03:00;2.90;;;2.33;;
38455;SDS011;24237;50.106;20.014;2023-05-07T06:05:26;4.05;;;2.45;;
38455;SDS011;24237;50.106;20.014;2023-05-07T06:07:51;2.97;;;2.03;;
38455;SDS011;24237;50.106;20.014;2023-05-07T06:10:17;4.60;;;2.38;;
38455;SDS011;24237;50.106;20.014;2023-05-07T06:12:42;5.28;;;2.45;;
38455;SDS011;24237;50.106;20.014;2023-05-07T06:15:08;4.93;;;2.47;;
38455;SDS011;24237;50.106;20.014;2023-05-07T06:17:34;5.85;;;2.22;;
38455;SDS011;24237;50.106;20.014;2023-05-07T06:20:00;4.68;;;2.20;;
38455;SDS011;24237;50.106;20.014;2023-05-07T06:22:25;4.18;;;2.10;;
38455;SDS011;24237;50.106;20.014;2023-05-07T06:24:51;5.47;;;3.53;;
38455;SDS011;24237;50.106;20.014;2023-05-07T06:27:16;7.50;;;2.60;;
38455;SDS011;24237;50.106;20.014;2023-05-07T06:29:42;3.33;;;2.50;;
38455;SDS011;24237;50.106;20.014;2023-05-07T06:32:11;4.53;;;2.95;;
38455;SDS011;24237;50.106;20.014;2023-05-07T06:34:38;4.82;;;2.53;;
38455;SDS011;24237;50.106;20.014;2023-05-07T06:37:05;4.53;;;2.88;;
38455;SDS011;24237;50.106;20.014;2023-05-07T06:39:31;5.53;;;2.50;;
38455;SDS011;24237;50.106;20.014;2023-05-07T06:41:56;4.05;;;2.60;;
38455;SDS011;24237;50.106;20.014;2023-05-07T06:44:22;4.78;;;2.50;;
38455;SDS011;24237;50.106;20.014;2023-05-07T06:46:48;2.88;;;2.10;;
38455;SDS011;24237;50.106;20.014;2023-05-07T06:49:14;5.20;;;2.30;;
38455;SDS011;24237;50.106;20.014;2023-05-07T06:51:39;4.25;;;2.17;;
38455;SDS011;24237;50.106;20.014;2023-05-07T06:54:05;5.18;;;1.88;;
38455;SDS011;24237;50.106;20.014;2023-05-07T06:56:31;3.63;;;1.85;;
38455;SDS011;24237;50.106;20.014;2023-05-07T06:58:57;2.08;;;1.35;;
38455;SDS011;24237;50.106;20.014;2023-05-07T07:01:24;5.37;;;2.20;;
38455;SDS011;24237;50.106;20.014;2023-05-07T07:03:50;2.88;;;2.05;;
38455;SDS011;24237;50.106;20.014;2023-05-07T07:06:16;3.53;;;2.00;;
38455;SDS011;24237;50.106;20.014;2023-05-07T07:08:41;7.40;;;3.60;;
38455;SDS011;24237;50.106;20.014;2023-05-07T07:11:07;6.20;;;2.13;;
38455;SDS011;24237;50.106;20.014;2023-05-07T07:13:33;2.67;;;1.88;;
38455;SDS011;24237;50.106;20.014;2023-05-07T07:15:59;4.72;;;1.80;;
38455;SDS011;24237;50.106;20.014;2023-05-07T07:18:25;6.43;;;2.13;;
38455;SDS011;24237;50.106;20.014;2023-05-07T07:20:50;3.42;;;2.05;;
38455;SDS011;24237;50.106;20.014;2023-05-07T07:23:16;3.97;;;2.05;;
38455;SDS011;24237;50.106;20.014;2023-05-07T07:25:42;3.17;;;1.98;;
38455;SDS011;24237;50.106;20.014;2023-05-07T07:28:07;4.32;;;2.35;;
38455;SDS011;24237;50.106;20.014;2023-05-07T07:30:33;4.13;;;2.47;;
38455;SDS011;24237;50.106;20.014;2023-05-07T07:32:59;6.93;;;3.83;;
38455;SDS011;24237;50.106;20.014;2023-05-07T07:35:34;4.60;;;2.22;;
38455;SDS011;24237;50.106;20.014;2023-05-07T07:38:00;6.22;;;2.28;;
38455;SDS011;24237;50.106;20.014;2023-05-07T07:40:26;8.52;;;3.50;;
38455;SDS011;24237;50.106;20.014;2023-05-07T07:42:52;6.05;;;2.15;;
38455;SDS011;24237;50.106;20.014;2023-05-07T07:45:18;4.57;;;2.30;;
38455;SDS011;24237;50.106;20.014;2023-05-07T07:47:44;5.40;;;2.20;;
38455;SDS011;24237;50.106;20.014;2023-05-07T07:50:10;6.38;;;2.35;;
38455;SDS011;24237;50.106;20.014;2023-05-07T07:52:35;5.03;;;2.75;;
38455;SDS011;24237;50.106;20.014;2023-05-07T07:55:01;5.25;;;2.50;;
38455;SDS011;24237;50.106;20.014;2023-05-07T07:57:27;6.32;;;2.40;;
38455;SDS011;24237;50.106;20.014;2023-05-07T07:59:53;4.85;;;2.75;;
38455;SDS011;24237;50.106;20.014;2023-05-07T08:02:18;8.07;;;3.00;;
38455;SDS011;24237;50.106;20.014;2023-05-07T08:04:44;5.30;;;3.05;;
38455;SDS011;24237;50.106;20.014;2023-05-07T08:07:10;5.28;;;3.10;;
38455;SDS011;24237;50.106;20.014;2023-05-07T08:09:39;6.22;;;2.88;;
38455;SDS011;24237;50.106;20.014;2023-05-07T08:12:06;5.57;;;3.30;;
38455;SDS011;24237;50.106;20.014;2023-05-07T08:14:32;5.95;;;2.42;;
38455;SDS011;24237;50.106;20.014;2023-05-07T08:16:58;6.18;;;2.47;;
38455;SDS011;24237;50.106;20.014;2023-05-07T08:19:23;4.80;;;2.88;;
38455;SDS011;24237;50.106;20.014;2023-05-07T08:21:49;5.53;;;3.17;;
38455;SDS011;24237;50.106;20.014;2023-05-07T08:24:15;5.28;;;3.08;;
38455;SDS011;24237;50.106;20.014;2023-05-07T08:26:41;8.10;;;3.45;;
38455;SDS011;24237;50.106;20.014;2023-05-07T08:29:07;4.95;;;3.47;;
38455;SDS011;24237;50.106;20.014;2023-05-07T08:31:32;6.40;;;3.97;;
38455;SDS011;24237;50.106;20.014;2023-05-07T08:33:58;4.88;;;3.92;;
38455;SDS011;24237;50.106;20.014;2023-05-07T08:36:24;6.05;;;4.28;;
38455;SDS011;24237;50.106;20.014;2023-05-07T08:38:50;14.68;;;7.55;;
38455;SDS011;24237;50.106;20.014;2023-05-07T08:41:17;11.10;;;6.93;;
38455;SDS011;24237;50.106;20.014;2023-05-07T08:43:42;7.50;;;5.60;;
38455;SDS011;24237;50.106;20.014;2023-05-07T08:46:13;8.18;;;3.88;;
38455;SDS011;24237;50.106;20.014;2023-05-07T08:48:42;4.28;;;3.03;;
38455;SDS011;24237;50.106;20.014;2023-05-07T08:51:11;5.75;;;3.45;;
38455;SDS011;24237;50.106;20.014;2023-05-07T08:53:39;8.02;;;3.35;;
38455;SDS011;24237;50.106;20.014;2023-05-07T08:58:32;3.30;;;2.72;;
38455;SDS011;24237;50.106;20.014;2023-05-07T09:00:58;5.65;;;3.17;;
38455;SDS011;24237;50.106;20.014;2023-05-07T09:03:24;6.00;;;2.80;;
38455;SDS011;24237;50.106;20.014;2023-05-07T09:05:50;4.05;;;2.70;;
38455;SDS011;24237;50.106;20.014;2023-05-07T09:08:15;5.18;;;3.08;;
38455;SDS011;24237;50.106;20.014;2023-05-07T09:10:41;4.70;;;2.90;;
38455;SDS011;24237;50.106;20.014;2023-05-07T09:13:07;3.97;;;2.88;;
38455;SDS011;24237;50.106;20.014;2023-05-07T09:15:32;6.40;;;3.85;;
38455;SDS011;24237;50.106;20.014;2023-05-07T09:17:59;5.63;;;3.05;;
38455;SDS011;24237;50.106;20.014;2023-05-07T09:20:26;5.00;;;3.20;;
38455;SDS011;24237;50.106;20.014;2023-05-07T09:22:51;6.07;;;3.10;;
38455;SDS011;24237;50.106;20.014;2023-05-07T09:25:27;4.35;;;2.75;;
38455;SDS011;24237;50.106;20.014;2023-05-07T09:27:56;7.65;;;3.10;;
38455;SDS011;24237;50.106;20.014;2023-05-07T09:30:28;4.00;;;2.75;;
38455;SDS011;24237;50.106;20.014;2023-05-07T09:32:55;3.75;;;2.58;;
38455;SDS011;24237;50.106;20.014;2023-05-07T09:35:22;5.97;;;2.95;;
38455;SDS011;24237;50.106;20.014;2023-05-07T09:37:49;3.65;;;2.70;;
38455;SDS011;24237;50.106;20.014;2023-05-07T09:40:21;8.95;;;4.30;;
38455;SDS011;24237;50.106;20.014;2023-05-07T09:42:48;5.25;;;3.78;;
38455;SDS011;24237;50.106;20.014;2023-05-07T09:45:15;4.70;;;3.25;;
38455;SDS011;24237;50.106;20.014;2023-05-07T09:47:42;4.17;;;2.93;;
38455;SDS011;24237;50.106;20.014;2023-05-07T09:50:11;4.90;;;3.33;;
38455;SDS011;24237;50.106;20.014;2023-05-07T09:52:40;4.97;;;3.03;;
38455;SDS011;24237;50.106;20.014;2023-05-07T09:55:07;6.07;;;3.45;;
38455;SDS011;24237;50.106;20.014;2023-05-07T09:57:34;5.70;;;3.83;;
38455;SDS011;24237;50.106;20.014;2023-05-07T10:00:00;6.00;;;3.83;;
38455;SDS011;24237;50.106;20.014;2023-05-07T10:02:29;11.18;;;4.60;;
38455;SDS011;24237;50.106;20.014;2023-05-07T10:04:56;8.27;;;4.00;;
38455;SDS011;24237;50.106;20.014;2023-05-07T10:07:25;8.35;;;3.78;;
38455;SDS011;24237;50.106;20.014;2023-05-07T10:09:51;7.35;;;4.15;;
38455;SDS011;24237;50.106;20.014;2023-05-07T10:12:17;6.15;;;3.88;;
38455;SDS011;24237;50.106;20.014;2023-05-07T10:14:45;10.23;;;4.85;;
38455;SDS011;24237;50.106;20.014;2023-05-07T10:17:13;7.80;;;4.40;;
38455;SDS011;24237;50.106;20.014;2023-05-07T10:19:41;4.68;;;3.38;;
38455;SDS011;24237;50.106;20.014;2023-05-07T10:22:09;5.90;;;4.00;;
38455;SDS011;24237;50.106;20.014;2023-05-07T10:24:36;7.97;;;5.07;;
38455;SDS011;24237;50.106;20.014;2023-05-07T10:27:04;6.32;;;3.75;;
38455;SDS011;24237;50.106;20.014;2023-05-07T10:32:40;6.88;;;4.30;;
38455;SDS011;24237;50.106;20.014;2023-05-07T10:35:19;7.68;;;3.75;;
38455;SDS011;24237;50.106;20.014;2023-05-07T10:37:47;4.90;;;3.42;;
38455;SDS011;24237;50.106;20.014;2023-05-07T10:40:14;9.05;;;4.00;;
38455;SDS011;24237;50.106;20.014;2023-05-07T10:42:52;6.00;;;3.47;;
38455;SDS011;24237;50.106;20.014;2023-05-07T10:45:22;4.88;;;3.30;;
38455;SDS011;24237;50.106;20.014;2023-05-07T10:50:40;6.43;;;4.00;;
38455;SDS011;24237;50.106;20.014;2023-05-07T10:55:45;6.03;;;4.13;;
38455;SDS011;24237;50.106;20.014;2023-05-07T10:58:22;5.13;;;3.15;;
38455;SDS011;24237;50.106;20.014;2023-05-07T11:00:55;4.40;;;3.03;;
38455;SDS011;24237;50.106;20.014;2023-05-07T11:03:25;4.65;;;3.13;;
38455;SDS011;24237;50.106;20.014;2023-05-07T11:06:10;4.55;;;3.28;;
38455;SDS011;24237;50.106;20.014;2023-05-07T11:08:53;5.00;;;3.28;;
38455;SDS011;24237;50.106;20.014;2023-05-07T11:11:36;5.40;;;2.97;;
38455;SDS011;24237;50.106;20.014;2023-05-07T11:14:13;4.00;;;2.65;;
38455;SDS011;24237;50.106;20.014;2023-05-07T11:16:40;4.20;;;2.50;;
38455;SDS011;24237;50.106;20.014;2023-05-07T11:19:08;8.15;;;4.90;;
38455;SDS011;24237;50.106;20.014;2023-05-07T11:24:06;3.22;;;2.20;;
38455;SDS011;24237;50.106;20.014;2023-05-07T11:26:54;2.70;;;2.33;;
38455;SDS011;24237;50.106;20.014;2023-05-07T11:29:19;4.65;;;2.03;;
38455;SDS011;24237;50.106;20.014;2023-05-07T11:31:49;2.75;;;2.05;;
38455;SDS011;24237;50.106;20.014;2023-05-07T11:34:23;3.35;;;2.42;;
38455;SDS011;24237;50.106;20.014;2023-05-07T11:36:50;2.95;;;2.17;;
38455;SDS011;24237;50.106;20.014;2023-05-07T11:42:24;2.70;;;2.00;;
38455;SDS011;24237;50.106;20.014;2023-05-07T11:44:53;4.53;;;2.20;;
38455;SDS011;24237;50.106;20.014;2023-05-07T11:47:19;3.72;;;2.30;;
38455;SDS011;24237;50.106;20.014;2023-05-07T11:49:48;5.18;;;2.63;;
38455;SDS011;24237;50.106;20.014;2023-05-07T11:52:15;4.25;;;2.30;;
38455;SDS011;24237;50.106;20.014;2023-05-07T11:54:49;4.30;;;2.42;;
38455;SDS011;24237;50.106;20.014;2023-05-07T11:57:15;5.38;;;2.58;;
38455;SDS011;24237;50.106;20.014;2023-05-07T11:59:40;3.78;;;2.65;;
38455;SDS011;24237;50.106;20.014;2023-05-07T12:02:06;4.93;;;2.30;;
38455;SDS011;24237;50.106;20.014;2023-05-07T12:04:33;4.30;;;2.58;;
38455;SDS011;24237;50.106;20.014;2023-05-07T12:06:58;6.13;;;3.38;;
38455;SDS011;24237;50.106;20.014;2023-05-07T12:09:24;4.47;;;2.70;;
38455;SDS011;24237;50.106;20.014;2023-05-07T12:11:51;7.72;;;2.35;;
38455;SDS011;24237;50.106;20.014;2023-05-07T12:14:17;3.63;;;2.60;;
38455;SDS011;24237;50.106;20.014;2023-05-07T12:16:43;4.70;;;2.50;;
38455;SDS011;24237;50.106;20.014;2023-05-07T12:19:10;5.22;;;2.83;;
38455;SDS011;24237;50.106;20.014;2023-05-07T12:21:37;4.78;;;2.20;;
38455;SDS011;24237;50.106;20.014;2023-05-07T12:24:04;4.97;;;2.45;;
38455;SDS011;24237;50.106;20.014;2023-05-07T12:26:30;4.65;;;2.70;;
38455;SDS011;24237;50.106;20.014;2023-05-07T12:28:57;8.38;;;2.45;;
38455;SDS011;24237;50.106;20.014;2023-05-07T12:31:25;7.45;;;2.80;;
38455;SDS011;24237;50.106;20.014;2023-05-07T12:33:51;4.22;;;2.67;;
38455;SDS011;24237;50.106;20.014;2023-05-07T12:36:16;5.00;;;2.55;;
38455;SDS011;24237;50.106;20.014;2023-05-07T12:38:42;5.38;;;3.22;;
38455;SDS011;24237;50.106;20.014;2023-05-07T12:41:08;4.40;;;2.90;;
38455;SDS011;24237;50.106;20.014;2023-05-07T12:43:35;7.05;;;3.38;;
38455;SDS011;24237;50.106;20.014;2023-05-07T12:46:03;4.10;;;3.25;;
38455;SDS011;24237;50.106;20.014;2023-05-07T12:48:30;4.05;;;2.50;;
38455;SDS011;24237;50.106;20.014;2023-05-07T12:50:57;4.80;;;2.70;;
38455;SDS011;24237;50.106;20.014;2023-05-07T12:53:24;3.95;;;2.63;;
38455;SDS011;24237;50.106;20.014;2023-05-07T12:55:52;3.72;;;2.80;;
38455;SDS011;24237;50.106;20.014;2023-05-07T13:00:53;6.00;;;2.92;;
38455;SDS011;24237;50.106;20.014;2023-05-07T13:03:26;3.63;;;2.58;;
38455;SDS011;24237;50.106;20.014;2023-05-07T13:05:53;4.05;;;2.80;;
38455;SDS011;24237;50.106;20.014;2023-05-07T13:08:24;3.75;;;2.60;;
38455;SDS011;24237;50.106;20.014;2023-05-07T13:10:51;4.20;;;3.10;;
38455;SDS011;24237;50.106;20.014;2023-05-07T13:13:18;4.20;;;2.60;;
38455;SDS011;24237;50.106;20.014;2023-05-07T13:15:44;5.88;;;3.03;;
38455;SDS011;24237;50.106;20.014;2023-05-07T13:18:09;5.95;;;3.15;;
38455;SDS011;24237;50.106;20.014;2023-05-07T13:20:36;4.75;;;2.40;;
38455;SDS011;24237;50.106;20.014;2023-05-07T13:23:01;3.67;;;2.63;;
38455;SDS011;24237;50.106;20.014;2023-05-07T13:27:56;4.22;;;2.65;;
38455;SDS011;24237;50.106;20.014;2023-05-07T13:30:22;5.25;;;3.08;;
38455;SDS011;24237;50.106;20.014;2023-05-07T13:32:47;8.25;;;2.70;;
38455;SDS011;24237;50.106;20.014;2023-05-07T13:35:14;4.13;;;2.92;;
38455;SDS011;24237;50.106;20.014;2023-05-07T13:37:39;3.45;;;2.63;;
38455;SDS011;24237;50.106;20.014;2023-05-07T13:40:05;6.72;;;3.45;;
38455;SDS011;24237;50.106;20.014;2023-05-07T13:42:31;3.70;;;2.28;;
38455;SDS011;24237;50.106;20.014;2023-05-07T13:44:57;5.63;;;3.17;;
38455;SDS011;24237;50.106;20.014;2023-05-07T13:47:25;6.80;;;3.40;;
38455;SDS011;24237;50.106;20.014;2023-05-07T13:49:51;5.43;;;2.97;;
38455;SDS011;24237;50.106;20.014;2023-05-07T13:52:17;4.60;;;3.38;;
38455;SDS011;24237;50.106;20.014;2023-05-07T13:54:42;5.13;;;3.55;;
38455;SDS011;24237;50.106;20.014;2023-05-07T13:57:08;5.18;;;3.30;;
38455;SDS011;24237;50.106;20.014;2023-05-07T13:59:34;8.50;;;3.65;;
38455;SDS011;24237;50.106;20.014;2023-05-07T14:01:59;4.25;;;3.60;;
38455;SDS011;24237;50.106;20.014;2023-05-07T14:04:25;5.75;;;3.97;;
38455;SDS011;24237;50.106;20.014;2023-05-07T14:06:50;8.52;;;4.47;;
38455;SDS011;24237;50.106;20.014;2023-05-07T14:09:16;9.80;;;4.90;;
38455;SDS011;24237;50.106;20.014;2023-05-07T14:11:42;7.13;;;4.40;;
38455;SDS011;24237;50.106;20.014;2023-05-07T14:14:07;10.00;;;4.47;;
38455;SDS011;24237;50.106;20.014;2023-05-07T14:16:35;5.75;;;3.78;;
38455;SDS011;24237;50.106;20.014;2023-05-07T14:19:02;6.43;;;4.13;;
38455;SDS011;24237;50.106;20.014;2023-05-07T14:21:27;5.38;;;3.25;;
38455;SDS011;24237;50.106;20.014;2023-05-07T14:23:53;8.80;;;4.25;;
38455;SDS011;24237;50.106;20.014;2023-05-07T14:26:19;8.95;;;4.15;;
38455;SDS011;24237;50.106;20.014;2023-05-07T14:28:45;4.32;;;3.38;;
38455;SDS011;24237;50.106;20.014;2023-05-07T14:31:11;6.80;;;4.07;;
38455;SDS011;24237;50.106;20.014;2023-05-07T14:33:37;8.35;;;3.95;;
38455;SDS011;24237;50.106;20.014;2023-05-07T14:36:03;6.68;;;4.40;;
38455;SDS011;24237;50.106;20.014;2023-05-07T14:38:29;7.53;;;4.25;;
38455;SDS011;24237;50.106;20.014;2023-05-07T14:40:57;6.07;;;4.05;;
38455;SDS011;24237;50.106;20.014;2023-05-07T14:43:23;8.63;;;4.35;;
38455;SDS011;24237;50.106;20.014;2023-05-07T14:45:49;10.90;;;4.43;;
38455;SDS011;24237;50.106;20.014;2023-05-07T14:48:14;5.20;;;3.42;;
38455;SDS011;24237;50.106;20.014;2023-05-07T14:50:43;5.88;;;3.92;;